Date,TemperatureHighF,TemperatureAvgF,TemperatureLowF,DewpointHighF,DewpointAvgF,DewpointLowF,HumidityHigh,HumidityAvg,HumidityLow,PressureMaxIn,PressureMinIn,WindSpeedMaxMPH,WindSpeedAvgMPH,GustSpeedMaxMPH,PrecipitationSumIn
2013-1-1,27,21,13,22,16,8,89,79,64,30.35,30.18,15,3,17,0.06
2013-1-2,37,22,9,26,17,5,89,78,62,30.34,30.19,13,4,18,0.03
2013-1-3,40,30,23,31,24,19,90,79,63,30.46,30.30,10,2,15,0.01
2013-1-4,44,30,16,28,22,13,92,75,50,30.46,30.31,12,4,23,0.01
2013-1-5,44,36,32,35,30,25,85,77,70,30.31,30.10,24,6,24,0.01
2013-1-6,42,32,22,26,22,17,84,69,46,30.42,30.19,15,4,21,0.00
2013-1-7,50,36,24,29,24,19,82,64,40,30.36,30.11,13,6,23,0.00
2013-1-8,54,42,29,38,30,23,82,63,43,30.14,30.01,15,5,23,0.00
2013-1-9,55,41,28,37,32,25,91,73,43,30.44,30.16,8,2,13,0.00
2013-1-10,51,43,35,49,39,29,95,88,70,30.39,29.76,18,5,22,0.24
2013-1-11,61,55,49,49,47,44,95,74,57,29.79,29.61,24,9,27,0.01
2013-1-12,58,37,25,47,27,18,89,68,39,30.10,29.69,21,7,26,0.00
2013-1-13,27,21,13,18,12,7,77,69,56,30.38,30.06,18,6,19,0.08
2013-1-14,30,17,4,14,8,0,89,69,44,30.58,30.41,6,2,12,0.02
2013-1-15,31,18,6,18,10,2,89,73,48,30.49,30.25,6,2,10,0.02
2013-1-16,43,28,12,27,18,8,87,68,46,30.26,30.08,12,5,23,0.03
2013-1-17,47,36,28,30,27,23,91,72,46,30.51,30.18,8,4,17,0.00
2013-1-18,56,42,31,33,29,25,79,62,39,30.48,30.10,24,8,35,0.00
2013-1-19,63,49,42,37,32,29,71,54,31,30.22,30.00,26,8,26,0.00
2013-1-20,42,31,24,29,17,10,74,56,35,30.40,30.24,19,5,19,0.00
2013-1-21,27,20,13,14,8,1,84,60,37,30.49,30.42,9,4,20,0.00
2013-1-22,31,21,13,12,7,3,74,55,39,30.49,30.34,9,4,13,0.00
2013-1-23,51,29,12,25,16,8,86,63,33,30.41,30.22,21,3,21,0.00
2013-1-24,28,22,12,16,9,4,71,57,42,30.57,30.25,15,7,24,0.00
2013-1-25,48,34,21,22,17,10,66,51,33,30.27,30.19,7,2,13,0.00
2013-1-26,56,41,25,29,25,19,84,56,31,30.35,30.16,15,4,15,0.00
2013-1-27,63,50,38,52,43,25,88,77,46,30.16,29.79,31,8,31,0.14
2013-1-28,75,65,57,60,57,53,88,75,54,29.87,29.69,26,8,30,0.00
2013-1-29,68,55,38,60,51,37,95,87,73,29.69,29.43,17,7,28,1.45
2013-1-30,38,30,25,36,26,18,94,84,73,30.02,29.44,30,11,32,0.01
2013-1-31,28,22,10,21,14,3,87,72,56,30.54,29.99,21,8,36,0.00
2013-2-1,28,19,6,16,9,2,85,65,50,30.56,30.26,10,4,13,0.00
2013-2-2,48,37,26,33,26,16,79,65,53,30.26,30.09,17,5,23,0.01
2013-2-3,47,40,32,32,23,14,74,53,29,30.31,29.96,24,6,24,0.00
2013-2-4,54,42,25,34,29,22,87,61,44,30.02,29.80,11,5,20,0.00
2013-2-5,61,39,21,36,27,18,92,67,33,30.13,29.94,12,4,20,0.00
2013-2-6,63,43,23,38,30,20,93,64,36,30.16,29.93,20,5,21,0.00
2013-2-7,50,45,36,47,41,32,94,86,62,30.15,29.88,24,5,24,0.68
2013-2-8,40,34,29,32,29,26,88,82,69,30.39,30.20,10,4,18,0.01
2013-2-9,50,37,28,36,30,25,92,78,49,30.30,29.85,19,6,19,0.04
2013-2-10,58,48,40,49,37,26,93,67,40,29.83,29.49,43,13,43,0.03
2013-2-11,52,39,30,29,26,22,79,60,36,30.17,29.93,13,6,24,0.00
2013-2-12,42,32,22,30,24,19,91,75,52,30.20,30.01,5,1,7,0.00
2013-2-13,57,42,28,35,28,23,86,63,31,30.00,29.83,14,5,23,0.00
2013-2-14,54,43,32,35,29,25,82,59,39,30.13,29.85,17,6,22,0.00
2013-2-15,42,33,24,30,17,10,84,55,27,30.39,30.17,14,7,25,0.00
2013-2-16,38,29,18,23,19,14,86,67,48,30.37,30.15,17,3,17,0.00
2013-2-17,59,43,27,33,27,20,77,54,35,30.14,29.76,18,5,18,0.00
2013-2-18,55,45,28,50,35,20,89,68,49,30.04,29.53,31,10,37,0.06
2013-2-19,38,28,20,19,12,2,78,53,24,30.38,30.09,16,8,27,0.00
2013-2-20,27,22,17,16,11,6,70,63,57,30.45,30.26,16,5,17,0.00
2013-2-21,29,25,22,27,21,15,92,85,64,30.27,29.80,31,9,31,0.00
2013-2-22,31,26,17,28,23,14,93,87,78,30.12,29.82,18,5,21,0.33
2013-2-23,34,21,6,25,15,2,89,78,62,30.14,30.02,15,3,15,0.17
2013-2-24,48,32,7,31,21,3,91,66,44,30.12,29.97,16,4,16,0.04
2013-2-25,38,34,28,31,27,23,92,75,68,30.02,29.64,32,7,33,0.03
2013-2-26,33,33,33,31,31,31,93,92,92,29.65,29.53,21,9,21,0.00
2013-2-27,35,32,29,30,29,25,93,87,79,30.02,29.85,23,7,23,0.20
2013-2-28,35,31,28,28,26,24,85,80,72,30.23,30.05,12,7,23,0.13
2013-3-1,33,30,26,26,25,22,86,82,72,30.33,30.20,12,6,19,0.08
2013-3-2,37,28,21,23,19,16,85,70,50,30.41,30.25,13,4,15,0.46
2013-3-3,44,32,20,28,23,16,84,68,49,30.25,29.89,17,5,17,0.03
2013-3-4,50,41,34,33,30,27,77,66,51,29.90,29.69,15,5,18,0.00
2013-3-5,38,34,30,32,25,20,91,70,57,30.33,29.95,30,12,33,0.04
2013-3-6,36,29,24,23,20,17,81,69,55,30.48,30.36,12,4,19,0.00
2013-3-7,47,33,17,30,24,14,90,71,49,30.37,30.20,14,5,17,0.00
2013-3-8,54,42,28,39,32,25,90,70,51,30.28,30.09,15,5,15,0.05
2013-3-9,61,49,42,52,42,39,95,79,57,30.06,29.58,20,6,24,1.07
2013-3-10,56,47,33,52,44,30,95,90,60,29.83,29.58,27,8,32,0.34
2013-3-11,40,32,28,30,26,22,88,77,59,30.03,29.85,14,8,24,0.00
2013-3-12,52,37,26,34,25,23,87,66,37,30.32,30.05,19,7,31,0.00
2013-3-13,47,35,24,24,21,19,81,60,34,30.52,30.36,13,4,19,0.00
2013-3-14,74,52,34,43,32,23,67,50,29,30.38,30.06,16,6,30,0.00
2013-3-15,80,56,33,50,42,30,93,63,34,30.08,29.66,13,5,23,0.00
2013-3-16,58,45,38,47,36,29,83,73,63,30.08,29.67,29,7,29,0.00
2013-3-17,38,35,33,33,30,27,92,83,71,30.09,29.80,21,8,25,0.43
2013-3-18,56,43,35,42,32,21,94,70,33,30.06,29.77,26,7,29,0.01
2013-3-19,42,35,26,36,25,14,92,68,34,30.28,30.08,9,3,15,0.00
2013-3-20,41,34,26,33,16,8,93,53,25,30.42,30.19,16,8,26,0.00
2013-3-21,31,26,19,26,19,11,88,73,51,30.17,29.97,10,4,16,0.00
2013-3-22,35,33,30,33,30,27,92,89,86,30.05,29.98,9,4,15,0.04
2013-3-23,42,37,33,34,31,29,92,80,63,30.06,29.89,22,6,22,0.27
2013-3-24,36,32,29,32,29,24,93,89,82,30.06,29.76,27,10,27,0.43
2013-3-25,36,29,22,28,24,18,89,81,69,30.31,30.06,22,8,25,0.15
2013-3-26,41,31,20,29,23,18,90,71,51,30.45,30.35,10,4,14,0.01
2013-3-27,51,36,23,35,27,20,91,73,51,30.38,30.24,12,4,19,0.00
2013-3-28,65,52,38,42,37,32,81,59,36,30.27,30.14,10,3,11,0.00
2013-3-29,69,54,39,47,40,36,88,63,31,30.22,30.11,9,5,18,0.05
2013-3-30,62,53,46,55,47,37,92,82,65,30.12,29.86,20,4,24,0.10
2013-3-31,72,57,45,49,43,31,95,65,28,29.96,29.90,19,5,24,0.10
2013-4-1,51,43,35,34,24,16,81,50,25,30.29,29.97,11,6,21,0.00
2013-4-2,50,38,27,25,22,19,80,53,30,30.38,30.28,10,3,16,0.00
2013-4-3,53,42,29,27,23,18,82,52,27,30.41,30.26,11,5,24,0.00
2013-4-4,63,50,38,30,26,21,71,43,20,30.26,30.07,6,2,11,0.00
2013-4-5,70,54,34,42,36,28,84,53,33,30.19,29.92,10,4,17,0.00
2013-4-6,76,63,54,50,44,36,59,50,37,29.91,29.65,32,10,34,0.00
2013-4-7,76,60,42,55,47,39,91,66,40,29.87,29.66,18,3,18,0.01
2013-4-8,74,66,58,62,58,53,89,76,64,29.73,29.67,20,3,20,0.01
2013-4-9,74,72,70,62,61,61,73,70,65,29.71,29.68,21,5,21,0.00
2013-4-10,52,46,43,50,44,41,94,93,91,29.91,29.68,16,6,21,1.05
2013-4-11,45,39,35,41,33,30,93,80,60,29.82,29.74,15,8,29,0.00
2013-4-12,45,43,41,33,32,31,70,65,58,30.02,29.97,3,0,5,0.00
2013-4-13,65,48,30,45,36,28,93,67,40,30.10,29.77,18,3,18,0.00
2013-4-14,79,66,55,57,47,43,89,53,31,29.75,29.46,35,11,37,0.15
2013-4-15,57,50,46,50,43,37,93,77,60,29.97,29.69,24,4,24,0.28
2013-4-16,46,44,42,40,37,35,86,76,68,30.15,29.99,23,8,23,0.06
2013-4-17,62,52,46,59,50,40,95,91,79,30.09,29.62,13,4,19,0.43
2013-4-18,51,44,39,50,41,30,95,88,69,29.93,29.50,30,8,30,0.92
2013-4-19,58,45,34,31,28,22,76,54,27,30.10,29.91,15,10,31,0.00
2013-4-20,52,38,29,36,28,24,87,67,42,30.29,30.11,16,2,16,0.00
2013-4-21,69,58,47,45,39,32,69,51,33,30.26,30.11,30,8,30,0.00
2013-4-22,70,59,47,48,41,38,71,53,35,30.16,29.90,13,5,22,0.00
2013-4-23,54,40,36,48,37,34,93,90,75,30.15,29.95,17,7,25,0.67
2013-4-24,56,43,31,35,31,27,94,67,36,30.29,30.16,13,5,21,0.06
2013-4-25,68,53,37,42,37,31,82,57,33,30.34,30.17,8,4,16,0.00
2013-4-26,58,52,48,48,45,38,93,79,49,30.26,30.17,17,6,29,0.29
2013-4-27,52,49,48,50,47,46,95,94,92,30.22,30.09,10,4,15,0.37
2013-4-28,73,58,45,56,50,43,95,77,49,30.01,29.81,9,2,15,0.00
2013-4-29,83,69,55,64,57,48,80,65,48,29.83,29.64,18,8,22,0.00
2013-4-30,83,73,64,58,53,48,74,52,31,29.82,29.64,16,8,30,0.00
2013-5-1,85,72,56,63,54,45,72,55,38,30.09,29.82,24,5,26,0.00
2013-5-2,50,42,33,41,37,31,92,81,73,30.35,30.09,26,8,27,0.29
2013-5-3,38,35,33,36,33,31,94,92,90,30.30,29.96,21,6,23,0.85
2013-5-4,48,40,34,41,37,32,95,87,73,30.05,29.86,8,2,13,0.19
2013-5-5,65,53,45,53,47,41,95,82,62,30.11,30.01,18,3,18,0.01
2013-5-6,73,59,51,57,51,48,91,76,48,30.10,30.00,8,4,15,0.00
2013-5-7,80,64,45,58,50,43,95,66,34,30.07,29.96,6,1,12,0.00
2013-5-8,74,63,51,59,54,48,93,75,54,30.02,29.89,14,3,24,0.02
2013-5-9,65,62,60,61,60,58,93,92,83,29.88,29.83,22,1,22,0.62
2013-5-10,65,58,54,57,54,50,95,87,64,30.02,29.87,10,4,17,0.01
2013-5-11,72,60,44,55,39,29,95,52,24,30.22,30.04,30,7,30,0.00
2013-5-12,69,54,34,39,32,24,92,51,21,30.30,30.14,13,2,13,0.00
2013-5-13,77,62,43,56,47,35,93,61,37,30.17,29.96,9,4,17,0.00
2013-5-14,92,86,76,59,54,47,55,34,23,29.87,29.77,20,8,35,0.00
2013-5-15,86,75,66,68,60,54,80,61,48,29.88,29.78,13,5,21,0.00
2013-5-16,80,69,59,66,61,56,95,77,54,29.88,29.79,8,3,16,0.03
2013-5-17,78,67,57,64,60,54,95,79,58,29.93,29.84,5,1,9,0.00
2013-5-18,86,73,57,72,65,56,95,78,53,29.91,29.72,18,3,18,0.00
2013-5-19,86,74,63,70,66,59,92,75,56,29.82,29.51,24,6,35,0.56
2013-5-20,76,65,60,69,62,57,95,89,71,29.80,29.60,21,6,41,1.68
2013-5-21,72,65,57,62,59,54,94,83,67,29.78,29.65,7,3,17,0.00
2013-5-22,68,61,52,58,55,50,95,81,62,29.89,29.70,15,3,20,0.00
2013-5-23,70,61,52,59,54,49,91,79,65,30.18,29.92,9,3,26,0.00
2013-5-24,74,60,46,56,50,44,95,71,38,30.35,30.15,14,4,21,0.00
2013-5-25,80,69,56,68,58,48,89,70,59,30.18,30.00,19,4,19,0.00
2013-5-26,83,72,65,71,66,63,93,81,62,30.05,29.92,21,5,21,0.00
2013-5-27,77,70,62,71,65,59,95,83,73,29.96,29.67,34,5,34,1.54
2013-5-28,78,72,68,72,68,65,94,86,76,29.76,29.63,11,4,23,0.16
2013-5-29,83,75,65,71,66,62,93,77,60,29.83,29.64,27,6,31,0.00
2013-5-30,72,65,63,68,62,60,94,90,81,29.75,29.60,22,8,35,0.41
2013-5-31,78,66,59,73,64,58,96,92,83,29.84,29.63,23,4,32,2.13
2013-6-1,77,66,60,63,60,55,96,82,57,29.93,29.66,23,4,23,0.00
2013-6-2,66,60,54,58,54,49,92,81,69,30.07,29.93,13,3,14,0.00
2013-6-3,75,60,45,60,52,43,95,77,54,30.09,29.91,7,2,15,0.00
2013-6-4,72,64,59,66,60,55,93,86,77,30.02,29.88,9,4,16,0.09
2013-6-5,68,63,58,66,61,56,96,94,92,29.97,29.87,11,2,12,0.45
2013-6-6,78,67,58,65,61,55,96,81,53,29.94,29.88,5,2,13,0.00
2013-6-7,77,64,52,63,56,50,96,77,49,29.99,29.89,7,1,15,0.00
2013-6-8,79,67,50,62,56,48,95,72,47,29.94,29.77,18,4,20,0.00
2013-6-9,81,70,61,68,62,59,94,78,52,29.86,29.73,15,4,24,0.38
2013-6-10,88,72,58,70,62,56,95,74,48,29.87,29.80,7,1,15,0.00
2013-6-11,92,79,68,74,68,62,87,69,45,29.86,29.76,15,5,26,0.01
2013-6-12,90,82,73,77,72,67,86,71,56,29.82,29.72,20,6,33,0.00
2013-6-13,87,75,62,71,63,56,84,69,43,30.01,29.83,10,3,27,0.00
2013-6-14,88,75,62,74,66,60,95,77,53,30.02,29.87,11,3,21,0.00
2013-6-15,85,74,67,77,68,64,94,84,71,30.00,29.85,35,4,35,0.99
2013-6-16,84,74,66,76,70,64,95,89,73,29.94,29.86,10,2,10,0.01
2013-6-17,77,70,66,72,67,64,95,91,81,29.96,29.84,11,2,22,0.48
2013-6-18,88,73,62,76,66,61,96,82,49,30.00,29.93,6,1,14,0.00
2013-6-19,86,74,61,74,66,60,96,78,53,30.02,29.92,12,2,13,0.00
2013-6-20,87,78,67,75,69,65,93,76,59,30.01,29.88,16,5,22,0.00
2013-6-21,90,82,75,78,72,68,84,72,58,29.97,29.87,11,6,24,0.00
2013-6-22,90,82,70,77,72,67,93,73,56,29.98,29.82,21,5,21,0.00
2013-6-23,89,84,76,77,74,71,85,71,62,29.91,29.80,21,5,21,0.00
2013-6-24,89,81,73,76,71,68,88,73,56,29.94,29.76,23,6,23,0.00
2013-6-25,86,80,77,74,70,68,85,73,61,29.87,29.68,19,6,27,0.01
2013-6-26,99,84,73,82,72,67,87,69,44,29.80,29.69,10,4,20,0.00
2013-6-27,92,75,66,78,70,64,95,87,55,29.98,29.73,17,1,40,0.35
2013-6-28,89,75,66,78,68,62,96,80,52,29.96,29.80,9,3,21,0.26
2013-6-29,84,71,62,69,62,58,88,76,54,29.82,29.74,37,5,37,0.00
2013-6-30,82,70,60,68,62,57,90,76,52,29.95,29.82,20,4,20,0.00
2013-7-1,85,70,58,65,58,52,90,66,39,30.06,29.98,16,4,25,0.00
2013-7-2,85,70,56,66,58,53,91,68,36,30.09,30.01,14,2,18,0.00
2013-7-3,87,70,59,68,60,54,93,71,38,30.06,29.96,22,2,22,0.00
2013-7-4,86,68,55,69,59,53,95,74,39,30.04,29.96,11,1,11,0.00
2013-7-5,88,74,58,68,61,56,94,66,37,30.00,29.88,8,3,15,0.00
2013-7-6,89,78,65,71,65,61,90,65,45,29.96,29.87,8,3,17,0.00
2013-7-7,90,77,70,73,67,62,83,72,53,29.96,29.90,19,4,19,0.00
2013-7-8,92,82,73,76,70,65,78,67,52,30.00,29.92,8,4,16,0.00
2013-7-9,95,84,73,78,72,68,86,69,51,29.98,29.81,17,4,19,0.00
2013-7-10,94,84,73,80,71,63,80,66,48,29.96,29.85,8,2,19,0.00
2013-7-11,91,76,62,69,63,59,94,67,40,30.04,29.94,11,3,14,0.00
2013-7-12,89,75,62,66,61,58,91,65,40,30.05,29.95,10,4,18,0.00
2013-7-13,85,74,63,71,63,58,86,69,51,30.04,29.94,9,3,16,0.00
2013-7-14,90,75,60,70,62,58,95,68,36,30.05,29.98,17,4,17,0.00
2013-7-15,89,77,65,75,68,63,95,75,52,30.16,30.07,10,2,14,0.00
2013-7-16,94,81,68,76,70,66,95,72,44,30.22,30.14,10,2,13,0.00
2013-7-17,87,83,78,74,73,69,83,71,56,30.15,30.14,6,0,6,0.00
2013-7-18,98,83,69,77,70,66,95,69,38,30.17,29.94,5,1,13,0.00
2013-7-19,99,85,71,75,69,64,86,62,34,29.96,29.80,6,2,15,0.00
2013-7-20,85,80,72,75,71,67,91,74,57,29.90,29.81,19,1,19,0.00
2013-7-21,87,78,70,74,69,67,90,76,57,29.89,29.76,17,2,17,0.01
2013-7-22,95,80,67,76,70,65,95,72,45,29.81,29.71,18,2,20,0.00
2013-7-23,89,80,70,76,70,67,93,75,57,29.86,29.75,12,3,17,0.00
2013-7-24,92,75,66,67,62,59,84,66,38,30.00,29.87,6,2,14,0.00
2013-7-25,91,75,60,66,62,58,95,68,39,30.08,30.02,10,1,10,0.00
2013-7-26,82,73,67,74,68,59,95,85,65,30.01,29.93,12,1,12,0.20
2013-7-27,84,68,54,62,56,51,95,69,38,30.08,29.95,16,1,16,0.00
2013-7-28,85,67,53,61,54,47,94,68,28,30.04,29.99,14,0,14,0.00
2013-7-29,71,67,62,68,64,56,95,90,74,30.09,29.96,14,2,17,0.22
2013-7-30,81,75,70,77,72,68,96,91,79,30.00,29.94,7,1,12,0.33
2013-7-31,86,76,68,75,70,65,95,83,60,30.07,29.99,9,2,13,0.00
2013-8-1,91,75,63,74,66,61,96,76,47,30.07,29.93,7,1,11,0.00
2013-8-2,85,76,70,78,71,67,95,87,73,29.94,29.82,9,2,19,0.19
2013-8-3,78,76,72,71,70,69,92,84,80,30.06,30.01,2,0,6,0.00
2013-8-4,73,70,68,71,67,64,94,89,82,30.13,30.00,10,2,11,0.05
2013-8-5,86,77,68,78,72,66,96,86,72,30.02,29.79,7,2,13,0.03
2013-8-6,89,78,70,77,73,68,96,85,63,29.86,29.75,10,3,30,0.25
2013-8-7,85,77,71,78,73,70,96,88,68,29.90,29.73,9,1,21,0.69
2013-8-8,78,71,67,72,68,65,94,89,79,29.96,29.85,8,2,16,0.00
2013-8-9,76,71,67,72,68,65,96,92,86,30.04,29.95,8,1,9,0.01
2013-8-10,88,74,64,72,66,62,96,79,51,30.16,30.05,15,2,15,0.00
2013-8-11,86,74,59,72,65,57,96,77,52,30.11,29.98,11,1,11,0.00
2013-8-12,85,74,69,76,70,67,96,88,68,30.03,29.91,8,1,15,1.14
2013-8-13,84,72,65,71,65,62,96,81,54,30.09,29.97,6,1,18,0.00
2013-8-14,82,68,59,65,60,55,95,77,45,30.18,30.08,7,2,12,0.00
2013-8-15,74,63,57,63,58,55,95,83,61,30.12,30.00,13,2,13,0.00
2013-8-16,81,67,57,66,59,55,95,77,49,30.14,30.06,7,2,13,0.00
2013-8-17,82,65,52,66,57,50,96,77,44,30.19,30.08,16,2,16,0.00
2013-8-18,86,69,54,70,60,53,96,77,48,30.16,30.04,14,1,14,0.00
2013-8-19,86,72,57,71,62,55,96,73,46,30.09,29.97,9,1,12,0.00
2013-8-20,89,76,64,71,66,61,94,73,48,30.05,29.97,11,3,14,0.00
2013-8-21,92,77,64,72,68,62,94,74,46,30.06,29.97,7,3,13,0.00
2013-8-22,92,78,66,75,70,64,95,77,50,30.07,29.97,6,1,11,0.00
2013-8-23,92,78,66,78,69,64,96,77,48,30.06,29.97,4,0,13,0.00
2013-8-24,92,82,68,75,70,66,95,70,45,30.11,30.01,15,3,15,0.00
2013-8-25,93,80,66,77,70,64,95,72,49,30.18,30.07,14,3,14,0.00
2013-8-26,96,82,70,77,71,67,92,70,45,30.13,30.02,9,3,19,0.00
2013-8-27,96,81,69,72,68,66,92,67,40,30.04,29.94,8,3,22,0.00
2013-8-28,99,80,65,76,69,62,95,71,40,30.01,29.95,6,1,13,0.00
2013-8-29,97,82,68,76,71,66,95,71,43,30.01,29.90,7,2,12,0.00
2013-8-30,102,86,73,75,71,67,89,64,35,29.92,29.78,10,3,18,0.00
2013-8-31,97,83,75,78,74,70,90,76,48,29.87,29.79,9,2,20,0.00
2013-9-1,94,76,68,78,70,63,95,84,52,30.00,29.79,17,2,45,0.27
2013-9-2,90,70,60,69,62,58,94,78,43,30.08,29.96,11,1,11,0.00
2013-9-3,92,70,55,65,58,53,95,71,32,30.16,30.05,4,1,10,0.00
2013-9-4,94,71,53,70,59,51,96,72,31,30.22,30.10,9,0,12,0.00
2013-9-5,94,73,56,69,61,54,96,71,36,30.26,30.15,7,1,13,0.00
2013-9-6,91,86,75,65,61,59,59,43,36,30.17,30.03,9,3,15,0.00
2013-9-7,94,77,65,69,66,61,88,70,42,30.05,29.91,12,2,12,0.00
2013-9-8,102,86,72,73,69,66,82,60,34,29.94,29.84,19,3,19,0.00
2013-9-9,99,85,72,69,65,59,80,55,30,29.97,29.89,17,4,23,0.00
2013-9-10,99,82,68,70,65,63,87,58,35,30.10,29.98,9,3,21,0.00
2013-9-11,99,81,64,70,64,60,92,60,30,30.16,30.05,12,2,16,0.00
2013-9-12,91,77,69,70,66,54,89,70,42,30.17,30.07,12,2,16,0.00
2013-9-13,85,66,52,56,50,47,89,59,29,30.23,30.10,6,2,14,0.00
2013-9-14,82,63,46,53,48,44,94,63,31,30.19,30.03,12,2,12,0.00
2013-9-15,84,72,62,68,58,51,90,61,45,30.13,30.01,19,3,19,0.02
2013-9-16,62,62,62,59,58,58,90,89,88,30.26,30.24,5,0,5,0.07
2013-9-17,70,65,62,67,63,59,95,93,90,30.26,30.05,8,2,14,0.75
2013-9-18,89,75,64,73,68,63,96,80,56,30.05,29.89,16,5,23,0.00
2013-9-19,93,79,69,73,68,66,92,71,45,29.96,29.79,24,5,37,0.59
2013-9-20,71,65,57,66,59,53,95,82,61,30.07,29.91,9,3,20,0.02
2013-9-21,78,59,47,57,50,45,96,75,36,30.11,29.98,4,0,12,0.00
2013-9-22,73,52,46,59,48,44,96,88,48,30.08,30.01,11,1,11,0.00
2013-9-23,78,64,53,57,53,50,92,70,40,30.02,29.87,15,4,23,0.00
2013-9-24,78,66,57,63,58,55,93,76,53,29.91,29.83,7,3,16,0.00
2013-9-25,75,64,56,65,60,54,95,86,66,29.96,29.88,6,1,9,0.00
2013-9-26,85,70,57,65,61,55,95,74,45,30.00,29.91,12,4,19,0.00
2013-9-27,87,74,64,67,63,61,90,70,46,30.04,29.92,9,4,17,0.00
2013-9-28,71,65,52,68,61,50,94,86,73,30.13,29.89,19,4,21,0.45
2013-9-29,76,60,46,63,52,44,96,76,44,30.18,30.03,10,0,10,0.01
2013-9-30,76,61,45,65,56,44,96,85,63,30.03,29.90,8,2,16,0.00
2013-10-1,84,71,62,69,64,60,95,80,53,30.03,29.92,5,3,13,0.00
2013-10-2,85,70,60,72,65,58,96,84,58,30.07,29.93,15,2,15,0.00
2013-10-3,87,75,68,72,68,66,94,80,58,29.95,29.80,15,4,21,0.00
2013-10-4,89,77,68,72,67,65,91,73,50,29.89,29.81,17,6,26,0.00
2013-10-5,75,58,50,66,50,40,93,76,49,30.07,29.91,25,4,25,0.16
2013-10-6,64,52,41,47,42,36,85,71,49,30.03,29.94,27,5,27,0.00
2013-10-7,77,56,41,51,44,39,95,69,32,30.22,30.06,7,1,13,0.00
2013-10-8,78,60,42,52,46,40,95,65,32,30.20,30.10,13,3,17,0.00
2013-10-9,74,57,48,49,48,43,92,74,33,30.14,30.09,9,1,9,0.00
2013-10-10,80,61,43,57,50,41,95,70,37,30.16,29.98,8,2,15,0.00
2013-10-11,79,68,57,64,59,53,90,75,59,29.97,29.84,13,6,27,0.00
2013-10-12,78,62,48,63,50,41,94,69,31,30.29,29.90,21,3,26,0.07
2013-10-13,79,57,39,47,40,33,95,61,21,30.48,30.31,19,2,19,0.00
2013-10-14,71,56,43,58,46,38,90,70,37,30.38,30.00,20,4,20,0.02
2013-10-15,68,60,51,59,52,43,94,78,49,30.09,29.92,15,4,22,0.17
2013-10-16,67,51,40,48,42,37,92,74,41,30.18,30.06,7,2,16,0.01
2013-10-17,71,55,43,49,45,40,94,72,34,30.08,29.92,8,2,23,0.00
2013-10-18,58,44,37,42,38,35,94,83,48,30.14,30.00,7,3,15,0.19
2013-10-19,60,46,35,45,38,33,94,77,45,30.10,29.92,10,5,21,0.01
2013-10-20,72,56,44,44,40,38,81,58,32,29.93,29.81,24,5,24,0.00
2013-10-21,64,50,38,45,38,31,83,64,31,30.12,29.91,8,3,19,0.00
2013-10-22,68,52,40,48,40,34,79,64,39,30.06,29.89,19,6,28,0.00
2013-10-23,54,41,29,38,32,27,94,74,44,30.20,30.07,4,1,9,0.00
2013-10-24,59,44,32,37,30,24,90,63,29,30.44,30.17,10,3,20,0.00
2013-10-25,58,40,23,35,25,20,94,62,26,30.52,30.22,9,2,17,0.00
2013-10-26,71,52,41,45,35,29,80,55,28,30.19,30.10,8,4,19,0.00
2013-10-27,65,45,25,35,28,22,94,58,22,30.17,29.98,10,1,14,0.00
2013-10-28,65,46,29,54,40,27,93,80,65,30.18,30.03,7,1,13,0.00
2013-10-29,64,56,45,62,54,42,96,95,91,30.17,29.95,11,3,14,0.77
2013-10-30,68,66,63,65,64,61,96,93,89,29.98,29.73,26,6,44,0.49
2013-10-31,63,55,46,61,53,44,96,94,89,29.71,29.51,10,4,17,0.52
2013-11-1,66,50,40,51,43,39,96,80,47,29.97,29.64,10,4,20,0.02
2013-11-2,59,47,35,45,39,32,92,75,47,30.20,29.97,9,4,19,0.00
2013-11-3,61,47,30,40,36,28,94,68,42,30.21,29.98,24,5,24,0.01
2013-11-4,62,56,51,51,46,40,76,68,58,30.11,29.95,13,6,26,0.00
2013-11-5,60,56,53,58,54,50,94,92,80,30.13,29.87,21,6,21,0.38
2013-11-6,60,43,34,58,39,31,94,87,72,30.34,29.86,11,6,24,0.36
2013-11-7,61,42,30,44,33,27,94,73,39,30.42,30.35,11,3,24,0.00
2013-11-8,65,47,28,40,33,26,94,63,30,30.37,29.94,23,6,34,0.00
2013-11-9,73,54,40,43,37,32,84,57,25,30.30,30.01,15,2,18,0.00
2013-11-10,61,49,37,36,32,26,82,55,28,30.44,30.27,13,2,14,0.00
2013-11-11,66,51,32,52,41,21,82,67,56,30.55,30.16,29,5,29,0.00
2013-11-12,41,28,18,22,15,11,85,61,30,30.89,30.63,13,4,25,0.00
2013-11-13,49,33,16,21,17,13,87,56,28,30.75,30.32,14,6,22,0.00
2013-11-14,56,43,33,28,25,23,72,52,31,30.26,30.01,13,8,25,0.00
2013-11-15,48,45,44,36,32,27,67,61,52,30.02,29.98,12,5,16,0.00
2013-11-16,68,61,50,60,55,46,90,80,71,29.79,29.46,21,12,39,0.08
2013-11-17,72,63,46,62,41,17,82,50,14,29.97,29.33,49,11,49,0.08
2013-11-18,63,46,34,39,30,24,91,59,25,30.31,30.05,7,3,13,0.00
2013-11-19,63,45,28,35,28,24,91,56,23,30.29,30.06,18,4,21,0.00
2013-11-20,51,45,39,42,34,15,91,70,26,30.05,29.91,11,5,21,0.01
2013-11-21,50,46,34,48,43,32,94,90,71,30.34,29.99,22,3,22,0.00
2013-11-22,34,31,28,30,27,25,93,87,81,30.64,30.40,13,6,25,0.00
2013-11-23,34,25,15,24,17,10,90,71,44,30.83,30.64,22,5,22,0.00
2013-11-24,30,20,11,16,11,7,89,70,47,30.82,30.46,10,2,11,0.00
2013-11-25,38,33,28,24,20,15,75,58,50,30.41,30.18,9,4,15,0.00
2013-11-26,40,30,21,30,22,14,92,74,53,30.39,30.16,21,6,26,0.00
2013-11-27,37,24,15,16,12,10,82,62,36,30.46,30.23,12,3,12,0.00
2013-11-28,50,34,25,26,20,15,78,59,36,30.48,30.19,13,4,17,0.00
2013-11-29,52,35,19,31,24,16,91,68,42,30.52,30.28,8,3,13,0.00
2013-11-30,58,43,32,39,33,27,89,68,49,30.28,30.06,9,3,19,0.00
2013-12-1,60,44,24,41,34,22,95,72,47,30.12,29.92,8,0,8,0.00
2013-12-2,49,41,31,44,38,28,95,90,81,29.88,29.62,7,2,13,0.00
2013-12-3,60,48,38,51,44,36,96,87,65,29.61,29.50,8,3,14,0.01
2013-12-4,52,42,28,50,39,22,95,88,79,29.94,29.48,20,5,21,0.00
2013-12-5,26,22,20,20,13,11,78,68,56,30.36,30.00,15,6,22,0.00
2013-12-6,23,18,12,11,6,3,70,59,43,30.65,30.38,15,6,19,0.00
2013-12-7,25,17,5,9,6,1,84,62,43,30.76,30.42,16,4,16,0.00
2013-12-8,26,23,20,23,18,8,91,79,56,30.43,30.01,14,3,17,0.00
2013-12-9,22,17,12,17,11,6,90,79,64,30.42,30.23,9,4,16,0.00
2013-12-10,39,23,9,22,13,4,81,65,41,30.38,30.25,10,5,18,0.00
2013-12-11,33,22,11,20,12,3,89,66,40,30.67,30.27,12,4,22,0.00
2013-12-12,48,28,8,24,13,3,80,57,28,30.64,30.25,16,6,23,0.00
2013-12-13,36,33,25,34,30,20,94,88,74,30.21,29.88,12,4,17,0.00
2013-12-14,33,29,22,32,27,18,94,90,84,30.24,29.87,21,6,26,0.00
2013-12-15,49,32,18,36,26,16,91,78,58,30.24,29.99,19,4,19,0.00
2013-12-16,59,40,27,37,30,24,92,72,40,30.13,29.96,7,2,17,0.00
2013-12-17,53,35,23,36,26,20,94,72,41,30.28,30.14,11,3,21,0.00
2013-12-18,62,44,22,38,31,19,91,62,40,30.25,29.81,17,7,33,0.00
2013-12-19,58,54,48,50,46,37,82,74,65,29.80,29.64,12,6,22,0.00
2013-12-20,56,33,25,51,29,20,91,86,79,29.93,29.61,11,4,21,0.00
2013-12-21,31,28,25,29,25,22,93,90,87,29.90,29.58,22,4,22,0.00
2013-12-22,29,26,18,27,23,15,92,90,86,30.32,29.70,16,4,16,0.00
2013-12-23,18,12,5,14,8,1,89,84,79,30.67,30.40,5,3,13,0.00
2013-12-24,28,16,2,24,12,-2,92,84,76,30.66,30.27,14,3,14,0.09
2013-12-25,40,33,28,34,30,26,93,87,78,30.35,30.27,15,4,15,0.17
2013-12-26,48,34,20,34,27,18,93,79,57,30.36,30.20,12,5,23,0.16
2013-12-27,53,38,25,39,32,22,94,79,54,30.35,30.22,13,4,13,0.03
2013-12-28,55,43,34,35,32,28,81,65,42,30.20,29.88,16,6,24,0.00
2013-12-29,39,23,13,31,15,4,85,71,57,30.35,29.88,25,9,29,0.00
2013-12-30,29,18,7,15,8,2,86,66,42,30.36,30.22,12,3,17,0.00
2013-12-31,50,33,16,29,22,13,89,65,44,30.36,30.09,11,5,24,0.00
2014-1-1,37,28,15,24,21,11,85,74,59,30.23,30.03,21,5,21,0.00
2014-1-2,23,12,1,9,3,-4,82,69,49,30.54,30.28,15,4,19,0.12